Time;durP1;ratioP1;P1;durP2;ratioP2;P2;SDS_P1;SDS_P2;PMS_P1;PMS_P2;Temp;Humidity;BMP_temperature;BMP_pressure;BME280_temperature;BME280_humidity;BME280_pressure;Samples;Min_cycle;Max_cycle;Signal;HPM_P1;HPM_P2
2022/05/09 00:00:29;;;;;;;14.03;5.10;;;;;;;7.40;99.69;101205.34;1744218;82;22336;-43
2022/05/09 00:02:55;;;;;;;21.40;5.37;;;;;;;7.38;99.99;101202.33;1744058;82;20925;-43
2022/05/09 00:05:26;;;;;;;14.87;4.35;;;;;;;7.35;100.00;101198.01;1743956;81;20937;-43
2022/05/09 00:07:53;;;;;;;27.15;7.83;;;;;;;7.36;100.00;101204.88;1744028;82;21240;-43
2022/05/09 00:10:23;;;;;;;10.65;5.40;;;;;;;7.42;100.00;101201.05;1740934;81;21007;-43
2022/05/09 00:12:50;;;;;;;13.95;4.80;;;;;;;7.51;100.00;101211.00;1735875;82;20897;-43
2022/05/09 00:15:17;;;;;;;15.53;4.45;;;;;;;7.55;100.00;101208.44;1735819;82;21487;-43
2022/05/09 00:17:45;;;;;;;20.97;6.05;;;;;;;7.58;100.00;101207.60;1735966;82;21232;-42
2022/05/09 00:20:15;;;;;;;18.77;4.53;;;;;;;7.62;100.00;101202.89;1735844;82;21854;-42
2022/05/09 00:22:50;;;;;;;10.65;3.67;;;;;;;7.61;100.00;101202.05;1735758;82;20957;-42
2022/05/09 00:25:20;;;;;;;12.25;3.98;;;;;;;7.62;100.00;101201.61;1735836;82;20976;-43
2022/05/09 00:27:46;;;;;;;5.95;2.98;;;;;;;7.64;97.41;101197.33;1735269;82;20850;-43
2022/05/09 00:30:14;;;;;;;6.22;2.52;;;;;;;7.76;95.32;101194.83;1735838;82;21023;-42
2022/05/09 00:32:40;;;;;;;14.55;2.80;;;;;;;7.84;93.60;101195.28;1735876;82;21321;-43
2022/05/09 00:35:09;;;;;;;6.08;3.05;;;;;;;7.87;92.00;101188.85;1735992;81;20939;-42
2022/05/09 00:37:36;;;;;;;6.42;2.90;;;;;;;7.89;91.11;101191.88;1735841;81;20938;-43
2022/05/09 00:40:08;;;;;;;10.72;3.10;;;;;;;7.89;90.79;101188.02;1735920;82;20941;-42
2022/05/09 00:42:36;;;;;;;9.35;3.12;;;;;;;7.91;90.79;101186.72;1735938;82;20933;-42
2022/05/09 00:45:06;;;;;;;10.00;2.58;;;;;;;7.96;89.93;101186.33;1735844;81;21005;-42
2022/05/09 00:47:33;;;;;;;8.08;2.50;;;;;;;7.95;89.65;101187.16;1735767;82;20937;-43
2022/05/09 00:50:02;;;;;;;6.92;2.55;;;;;;;7.98;89.06;101187.20;1735841;82;21495;-43
2022/05/09 00:52:37;;;;;;;6.20;2.20;;;;;;;8.00;87.65;101184.61;1735552;82;21487;-42
2022/05/09 00:55:20;;;;;;;5.83;2.65;;;;;;;8.07;85.02;101182.92;1736066;82;20960;-43
2022/05/09 00:58:17;;;;;;;9.03;2.45;;;;;;;8.18;83.74;101183.80;1715068;82;21137;-43
2022/05/09 01:00:45;;;;;;;7.30;2.85;;;;;;;8.22;83.04;101175.24;1735802;82;21412;-42
2022/05/09 01:03:18;;;;;;;7.40;2.87;;;;;;;8.21;82.31;101178.69;1735860;82;20941;-43
2022/05/09 01:05:50;;;;;;;8.00;2.65;;;;;;;8.20;81.32;101179.51;1735862;82;21507;-42
2022/05/09 01:08:13;;;;;;;7.78;3.20;;;;;;;8.19;80.93;101177.79;1735254;82;20976;-43
2022/05/09 01:10:40;;;;;;;6.67;4.05;;;;;;;8.19;81.89;101176.50;1735806;82;21146;-43
2022/05/09 01:13:10;;;;;;;12.90;2.42;;;;;;;8.16;83.23;101173.91;1735877;82;20913;-43
2022/05/09 01:15:37;;;;;;;6.80;2.60;;;;;;;8.13;84.21;101175.20;1735823;82;20941;-42
2022/05/09 01:18:06;;;;;;;9.40;2.83;;;;;;;8.07;83.93;101171.31;1691245;82;20940;-43
2022/05/09 01:20:33;;;;;;;12.40;2.77;;;;;;;8.01;83.44;101171.73;1735840;82;20933;-42
2022/05/09 01:23:00;;;;;;;7.95;2.85;;;;;;;7.95;83.32;101176.84;1735984;82;21195;-44
2022/05/09 01:25:28;;;;;;;4.85;2.70;;;;;;;7.87;83.15;101173.38;1735879;82;21008;-43
2022/05/09 01:27:55;;;;;;;4.83;2.27;;;;;;;7.80;82.86;101166.48;1715263;82;21023;-43
2022/05/09 01:30:46;;;;;;;9.98;2.60;;;;;;;7.73;82.49;101168.16;1735758;82;20980;-43
2022/05/09 01:33:30;;;;;;;4.78;2.80;;;;;;;7.69;82.41;101165.14;1715174;82;21300;-43
2022/05/09 01:36:07;;;;;;;4.53;2.50;;;;;;;7.68;82.18;101164.27;1735797;82;21309;-43
2022/05/09 01:38:42;;;;;;;5.97;2.27;;;;;;;7.76;80.59;101161.73;1736009;82;20894;-43
2022/05/09 01:41:08;;;;;;;10.72;2.72;;;;;;;7.94;79.92;101174.28;1735644;82;20980;-43
2022/05/09 01:43:43;;;;;;;6.67;2.75;;;;;;;8.12;79.19;101164.45;1735770;82;20913;-43
2022/05/09 01:46:14;;;;;;;7.50;2.60;;;;;;;8.26;78.57;101159.33;1736409;82;21083;-43
2022/05/09 01:51:25;;;;;;;5.10;1.87;;;;;;;8.33;75.60;101156.77;1736212;82;20941;-43
2022/05/09 01:53:54;;;;;;;7.55;2.50;;;;;;;8.33;75.16;101164.52;1735899;82;21503;-43
2022/05/09 01:56:25;;;;;;;7.53;2.45;;;;;;;8.41;74.38;101153.34;1735859;82;20969;-43
2022/05/09 01:58:51;;;;;;;5.30;2.10;;;;;;;8.47;73.36;101156.80;1735955;82;20968;-42
2022/05/09 02:01:19;;;;;;;8.60;2.47;;;;;;;8.50;72.53;101158.98;1736220;82;21103;-42
2022/05/09 02:03:47;;;;;;;10.65;2.77;;;;;;;8.56;70.77;101157.69;1735938;82;20960;-42
2022/05/09 02:06:21;;;;;;;8.15;2.77;;;;;;;8.71;71.33;101152.97;1735959;81;20925;-42
2022/05/09 02:08:46;;;;;;;8.80;2.65;;;;;;;8.76;71.62;101157.28;1736085;81;20960;-42
2022/05/09 02:11:13;;;;;;;8.88;2.92;;;;;;;8.77;71.26;101151.25;1739791;81;21538;-42
2022/05/09 02:13:40;;;;;;;9.88;2.70;;;;;;;8.72;70.75;101154.27;1744156;81;20999;-42
2022/05/09 02:16:07;;;;;;;8.93;3.00;;;;;;;8.66;70.67;101150.81;1744095;82;22253;-42
2022/05/09 02:18:35;;;;;;;9.38;2.60;;;;;;;8.60;70.27;101152.55;1743914;82;21411;-43
2022/05/09 02:21:02;;;;;;;10.00;2.83;;;;;;;8.59;69.93;101154.69;1744103;82;20940;-42
2022/05/09 02:23:29;;;;;;;10.55;2.40;;;;;;;8.66;69.81;101159.85;1744179;82;20995;-42
2022/05/09 02:25:55;;;;;;;6.97;2.50;;;;;;;8.72;68.96;101150.84;1744228;81;21498;-42
2022/05/09 02:28:23;;;;;;;7.40;2.87;;;;;;;8.81;67.81;101156.00;1744207;82;20889;-43
2022/05/09 02:30:51;;;;;;;8.18;2.75;;;;;;;8.88;67.14;101152.55;1744115;82;20957;-42
2022/05/09 02:33:17;;;;;;;5.00;2.85;;;;;;;8.97;66.30;101152.10;1744279;82;21483;-43
2022/05/09 02:35:46;;;;;;;10.40;2.60;;;;;;;9.04;66.44;101153.84;1744253;82;20972;-42
2022/05/09 02:38:13;;;;;;;8.63;2.58;;;;;;;9.08;66.54;101159.43;1744098;82;21138;-43
2022/05/09 02:40:40;;;;;;;5.28;3.02;;;;;;;9.10;66.98;101153.83;1743936;82;20992;-42
2022/05/09 02:43:06;;;;;;;7.92;2.65;;;;;;;9.16;66.61;101154.26;1744158;82;20980;-42
2022/05/09 02:45:33;;;;;;;9.23;2.80;;;;;;;9.25;66.19;101158.56;1715080;82;21545;-42
2022/05/09 02:48:00;;;;;;;7.28;3.08;;;;;;;9.33;66.74;101150.34;1744211;82;20984;-42
2022/05/09 02:50:28;;;;;;;7.42;2.55;;;;;;;9.40;65.77;101152.05;1744103;82;21152;-42
2022/05/09 02:52:54;;;;;;;8.18;2.45;;;;;;;9.51;65.26;101153.31;1744120;82;21489;-42
2022/05/09 02:55:22;;;;;;;3.80;2.27;;;;;;;9.66;63.34;101152.84;1744177;82;20881;-42
2022/05/09 02:57:49;;;;;;;11.20;2.75;;;;;;;9.84;62.88;101154.50;1744084;81;21478;-42
2022/05/09 03:00:23;;;;;;;17.10;3.35;;;;;;;9.96;62.83;101153.14;1744082;82;20983;-42
2022/05/09 03:05:39;;;;;;;7.83;2.25;;;;;;;10.23;60.47;101145.25;1744024;82;20972;-42
2022/05/09 03:08:08;;;;;;;10.85;2.45;;;;;;;10.46;59.74;101142.53;1744112;82;21250;-42
2022/05/09 03:10:36;;;;;;;7.87;2.15;;;;;;;10.67;58.93;101145.42;1744311;81;20928;-42
2022/05/09 03:13:05;;;;;;;7.42;2.55;;;;;;;10.86;57.96;101141.36;1750256;82;20894;-42
2022/05/09 03:15:35;;;;;;;5.90;2.08;;;;;;;11.03;57.74;101137.34;1722570;82;21091;-42
2022/05/09 03:18:03;;;;;;;9.05;2.20;;;;;;;11.23;56.42;101146.21;1749862;82;20936;-42
2022/05/09 03:20:30;;;;;;;13.28;2.35;;;;;;;11.42;56.57;101142.98;1722352;82;21099;-42
2022/05/09 03:22:57;;;;;;;9.53;3.15;;;;;;;11.54;56.11;101146.33;1749824;82;20967;-42
2022/05/09 03:25:23;;;;;;;3.90;2.10;;;;;;;11.65;56.12;101141.86;1750103;82;21557;-42
2022/05/09 03:27:50;;;;;;;10.00;2.22;;;;;;;11.72;55.92;101144.79;1749852;82;21124;-42
2022/05/09 03:30:17;;;;;;;6.97;2.25;;;;;;;11.84;54.92;101150.72;1749889;82;20983;-42
2022/05/09 03:32:44;;;;;;;10.32;2.77;;;;;;;11.93;55.00;101141.52;1749975;82;21486;-42
2022/05/09 03:35:11;;;;;;;6.55;2.20;;;;;;;12.00;53.99;101147.06;1722126;82;21030;-43
2022/05/09 03:37:37;;;;;;;6.60;2.30;;;;;;;12.09;53.89;101150.44;1749998;82;20940;-42
2022/05/09 03:40:06;;;;;;;3.83;2.40;;;;;;;12.16;53.45;101152.05;1722306;82;21100;-42
2022/05/09 03:42:33;;;;;;;4.30;2.10;;;;;;;12.24;52.73;101156.69;1749692;81;20976;-42
2022/05/09 03:45:00;;;;;;;5.00;2.33;;;;;;;12.30;52.06;101147.54;1722271;82;21443;-42
2022/05/09 03:47:26;;;;;;;4.85;1.92;;;;;;;12.38;52.18;101142.23;1749872;82;20984;-42
2022/05/09 03:49:55;;;;;;;6.20;2.37;;;;;;;12.47;52.59;101153.77;1749963;82;20972;-42
2022/05/09 03:52:22;;;;;;;10.30;2.27;;;;;;;12.60;53.19;101150.55;1749947;82;21158;-42
2022/05/09 03:54:48;;;;;;;11.80;2.10;;;;;;;12.78;52.27;101144.64;1749698;81;20936;-42
2022/05/09 03:57:15;;;;;;;9.05;2.12;;;;;;;12.99;51.93;101162.02;1749972;82;20999;-42
2022/05/09 03:59:42;;;;;;;9.73;2.65;;;;;;;13.22;52.36;101166.38;1749775;82;20968;-42
2022/05/09 04:02:10;;;;;;;10.70;2.22;;;;;;;13.46;52.00;101159.50;1749868;82;20940;-42
2022/05/09 04:04:37;;;;;;;12.53;1.95;;;;;;;13.62;51.65;101152.24;1722320;82;21122;-42
2022/05/09 04:07:04;;;;;;;9.48;2.45;;;;;;;13.71;50.91;101161.16;1749866;82;21530;-42
2022/05/09 04:09:31;;;;;;;19.05;2.87;;;;;;;13.76;51.07;101159.77;1749891;81;20929;-43
2022/05/09 04:11:59;;;;;;;18.20;3.05;;;;;;;13.79;50.76;101158.40;1749691;81;20861;-42
2022/05/09 04:17:11;;;;;;;6.00;2.25;;;;;;;13.89;50.96;101165.14;1749837;81;21263;-42
2022/05/09 04:19:38;;;;;;;7.30;2.37;;;;;;;13.91;50.79;101159.89;1749833;82;20908;-42
2022/05/09 04:22:05;;;;;;;8.53;2.50;;;;;;;13.93;50.80;101157.68;1722617;82;21335;-43
2022/05/09 04:24:31;;;;;;;6.40;2.10;;;;;;;14.04;50.76;101157.88;1749880;81;20944;-43
2022/05/09 04:26:59;;;;;;;10.48;2.33;;;;;;;14.21;50.84;101158.80;1749861;82;20866;-43
2022/05/09 04:29:27;;;;;;;5.62;2.00;;;;;;;14.42;49.69;101160.52;1749850;82;21160;-42
2022/05/09 04:31:54;;;;;;;14.15;2.30;;;;;;;14.62;49.68;101166.11;1749882;82;20968;-43
2022/05/09 04:34:21;;;;;;;6.92;2.05;;;;;;;14.82;49.21;101156.98;1749758;82;21406;-43
2022/05/09 04:36:47;;;;;;;3.62;1.75;;;;;;;14.99;49.42;101155.25;1722210;82;20845;-43
2022/05/09 04:39:15;;;;;;;10.65;2.72;;;;;;;15.11;48.99;101157.11;1749806;82;20987;-43
2022/05/09 04:41:42;;;;;;;8.13;2.33;;;;;;;15.28;48.08;101157.97;1749998;82;21106;-42
2022/05/09 04:44:09;;;;;;;7.10;2.22;;;;;;;15.28;47.51;101155.36;1749822;82;21011;-42
2022/05/09 04:46:36;;;;;;;7.08;2.42;;;;;;;15.33;47.42;101167.85;1749834;82;20940;-42
2022/05/09 04:49:02;;;;;;;11.10;2.27;;;;;;;15.36;47.60;101158.63;1722334;82;20971;-42
2022/05/09 04:51:29;;;;;;;2.77;1.98;;;;;;;15.36;46.81;101155.56;1749856;82;21410;-42
2022/05/09 04:53:56;;;;;;;10.60;2.30;;;;;;;15.36;47.82;101156.03;1749797;82;21198;-42
2022/05/09 04:56:22;;;;;;;6.08;2.20;;;;;;;15.37;47.35;101156.44;1749680;81;20929;-42
2022/05/09 04:58:50;;;;;;;7.65;3.12;;;;;;;15.37;47.55;101164.26;1749977;82;21481;-43
2022/05/09 05:01:16;;;;;;;9.55;2.60;;;;;;;15.40;48.41;101164.17;1749982;82;21035;-43
2022/05/09 05:03:43;;;;;;;5.67;2.40;;;;;;;15.39;48.10;101159.85;1749757;81;20920;-43
2022/05/09 05:06:09;;;;;;;9.53;2.50;;;;;;;15.35;48.42;101167.36;1749922;81;21097;-44
2022/05/09 05:08:36;;;;;;;12.07;3.02;;;;;;;15.29;47.61;101174.05;1749834;82;20900;-43
2022/05/09 05:11:04;;;;;;;11.78;2.83;;;;;;;15.16;48.25;101174.36;1749858;82;21035;-44
2022/05/09 05:13:33;;;;;;;5.42;2.70;;;;;;;15.08;48.51;101166.73;1749835;81;20999;-42
2022/05/09 05:15:59;;;;;;;7.53;2.67;;;;;;;15.01;49.41;101170.83;1749735;81;20932;-43
2022/05/09 05:18:27;;;;;;;9.68;2.47;;;;;;;15.01;50.24;101169.53;1749886;82;21193;-44
2022/05/09 05:20:55;;;;;;;5.37;2.90;;;;;;;15.14;49.88;101176.16;1749870;82;20925;-44
2022/05/09 05:23:21;;;;;;;10.10;2.52;;;;;;;15.32;49.66;101175.27;1749765;82;21393;-43
2022/05/09 05:25:48;;;;;;;14.30;2.20;;;;;;;15.50;50.81;101177.82;1749735;82;20954;-43
2022/05/09 05:28:16;;;;;;;7.25;2.85;;;;;;;15.80;49.27;101173.49;1749997;82;20845;-43
2022/05/09 05:30:44;;;;;;;19.92;2.80;;;;;;;16.05;50.27;101172.80;1749693;81;21122;-43
2022/05/09 05:33:11;;;;;;;14.90;3.45;;;;;;;16.21;49.50;101176.23;1750042;82;20955;-43
2022/05/09 05:35:37;;;;;;;34.35;4.10;;;;;;;16.37;49.01;101160.50;1750156;82;21386;-43
2022/05/09 05:38:05;;;;;;;26.62;3.87;;;;;;;16.54;48.42;101163.01;1749904;82;20901;-43
2022/05/09 05:40:33;;;;;;;19.55;3.35;;;;;;;16.77;49.73;101166.63;1749923;82;20912;-43
2022/05/09 05:43:00;;;;;;;16.45;4.03;;;;;;;17.06;48.72;101164.86;1749920;82;22051;-43
2022/05/09 05:45:28;;;;;;;11.38;3.60;;;;;;;17.18;48.03;101178.80;1749873;82;20967;-43
2022/05/09 05:47:54;;;;;;;7.95;3.42;;;;;;;17.11;48.26;101172.08;1750038;81;20971;-43
2022/05/09 05:50:22;;;;;;;10.58;3.55;;;;;;;17.01;48.76;101177.20;1750154;82;21173;-43
2022/05/09 05:52:49;;;;;;;13.15;3.58;;;;;;;17.07;48.96;101182.25;1722479;82;20916;-43
2022/05/09 05:55:19;;;;;;;13.50;4.05;;;;;;;17.19;49.34;101177.89;1722503;82;21214;-43
2022/05/09 05:57:45;;;;;;;11.95;4.08;;;;;;;17.13;48.82;101180.73;1749777;81;20881;-43
2022/05/09 06:00:19;;;;;;;8.35;3.10;;;;;;;17.10;50.76;101187.38;1750072;82;21485;-43
2022/05/09 06:02:46;;;;;;;11.38;3.22;;;;;;;17.08;50.61;101181.34;1699363;82;20995;-43
2022/05/09 06:05:14;;;;;;;11.40;4.03;;;;;;;17.05;51.41;101177.50;1749948;81;20921;-43
2022/05/09 06:07:41;;;;;;;12.88;3.25;;;;;;;17.19;51.72;101188.82;1749886;82;21165;-43
2022/05/09 06:10:10;;;;;;;16.75;4.00;;;;;;;17.32;50.94;101186.63;1749937;82;20984;-44
2022/05/09 06:12:37;;;;;;;5.15;3.35;;;;;;;17.29;50.80;101189.33;1743086;81;21399;-43
2022/05/09 06:17:50;;;;;;;12.90;3.90;;;;;;;17.24;53.29;101177.27;1736076;82;20846;-44
2022/05/09 06:20:18;;;;;;;8.05;3.95;;;;;;;17.43;53.49;101183.61;1736114;82;21068;-43
2022/05/09 06:22:45;;;;;;;11.10;3.70;;;;;;;17.61;53.06;101179.02;1735778;82;20886;-44
2022/05/09 06:25:15;;;;;;;20.27;4.03;;;;;;;17.93;52.20;101184.82;1736021;82;20933;-44
2022/05/09 06:27:44;;;;;;;12.18;3.45;;;;;;;18.03;52.19;101170.12;1735720;82;20964;-44
2022/05/09 06:30:12;;;;;;;12.85;3.70;;;;;;;18.03;51.59;101184.52;1735827;81;20945;-44
2022/05/09 06:32:38;;;;;;;11.12;3.75;;;;;;;18.07;51.94;101190.91;1735851;82;21209;-43
2022/05/09 06:35:08;;;;;;;21.62;3.98;;;;;;;18.16;51.77;101187.52;1735957;82;20929;-44
2022/05/09 06:37:36;;;;;;;11.43;3.30;;;;;;;18.26;52.21;101188.02;1735826;82;21075;-44
2022/05/09 06:40:05;;;;;;;8.00;3.77;;;;;;;18.56;50.29;101188.55;1735772;81;21576;-43
2022/05/09 06:42:32;;;;;;;10.35;3.20;;;;;;;18.74;50.04;101183.48;1735905;82;21300;-44
2022/05/09 06:44:59;;;;;;;6.33;3.33;;;;;;;18.93;51.00;101173.93;1735925;82;21261;-44
2022/05/09 06:47:25;;;;;;;4.28;2.60;;;;;;;19.19;50.20;101178.55;1735979;81;21428;-44
2022/05/09 06:49:51;;;;;;;3.58;2.37;;;;;;;19.27;50.42;101181.30;1736020;82;20972;-42
2022/05/09 06:52:18;;;;;;;6.90;3.00;;;;;;;19.42;49.53;101181.08;1735820;82;20972;-44
2022/05/09 06:54:45;;;;;;;8.28;3.70;;;;;;;19.57;48.56;101179.54;1735935;82;20918;-43
2022/05/09 06:57:12;;;;;;;11.90;3.00;;;;;;;19.68;48.55;101179.92;1735993;82;21136;-43
2022/05/09 06:59:39;;;;;;;6.72;3.17;;;;;;;19.91;48.81;101185.93;1735844;81;20944;-43
2022/05/09 07:02:11;;;;;;;8.95;3.10;;;;;;;20.10;49.01;101186.78;1735931;81;21000;-43
2022/05/09 07:04:38;;;;;;;17.48;3.22;;;;;;;20.12;48.21;101201.62;1715195;82;20870;-45
2022/05/09 07:07:05;;;;;;;3.95;2.00;;;;;;;19.95;47.22;101217.22;1736039;81;21048;-42
2022/05/09 07:09:31;;;;;;;6.47;2.47;;;;;;;19.62;47.61;101206.47;1735773;82;21058;-43
2022/05/09 07:11:58;;;;;;;2.83;2.27;;;;;;;19.50;48.73;101215.73;1735766;81;21440;-45
2022/05/09 07:14:24;;;;;;;5.90;2.08;;;;;;;19.64;48.63;101221.21;1735832;82;20929;-44
2022/05/09 07:16:51;;;;;;;2.50;2.25;;;;;;;19.68;48.73;101216.20;1735921;82;20969;-44
2022/05/09 07:19:18;;;;;;;3.33;2.52;;;;;;;19.77;48.54;101218.89;1735880;82;21605;-46
2022/05/09 07:21:44;;;;;;;7.60;2.45;;;;;;;19.73;48.85;101231.77;1735909;82;21009;-45
2022/05/09 07:24:12;;;;;;;4.25;2.30;;;;;;;19.35;48.84;101225.14;1735863;81;21003;-45
2022/05/09 07:26:39;;;;;;;5.87;2.17;;;;;;;19.17;49.67;101232.88;1735909;82;20937;-43
2022/05/09 07:29:06;;;;;;;8.68;2.45;;;;;;;19.29;49.96;101223.63;1735837;81;21427;-43
2022/05/09 07:31:33;;;;;;;26.62;3.00;;;;;;;19.55;49.87;101228.64;1735879;82;20980;-46
2022/05/09 07:34:00;;;;;;;8.08;1.80;;;;;;;19.75;50.23;101230.41;1736025;82;21387;-43
2022/05/09 07:36:28;;;;;;;2.00;1.90;;;;;;;19.94;49.14;101233.91;1735875;81;20881;-44
2022/05/09 07:38:55;;;;;;;2.27;1.65;;;;;;;19.80;49.31;101237.13;1736158;82;21573;-45
2022/05/09 07:41:21;;;;;;;5.30;1.70;;;;;;;19.40;49.31;101225.78;1735899;81;20976;-44
2022/05/09 07:43:50;;;;;;;1.85;1.42;;;;;;;19.21;50.47;101234.91;1735946;82;20921;-45
2022/05/09 07:46:18;;;;;;;5.22;1.85;;;;;;;19.40;49.78;101228.41;1735787;82;21109;-45
2022/05/09 07:48:44;;;;;;;1.62;1.52;;;;;;;19.65;49.37;101227.33;1735947;81;22131;-43
2022/05/09 07:51:14;;;;;;;4.37;1.60;;;;;;;19.85;48.83;101222.97;1735814;82;20925;-45
2022/05/09 07:53:41;;;;;;;4.25;1.90;;;;;;;19.93;49.02;101226.11;1735823;81;21016;-44
2022/05/09 07:56:08;;;;;;;7.62;1.90;;;;;;;20.01;48.10;101221.34;1736032;82;20893;-45
2022/05/09 07:58:35;;;;;;;5.22;2.00;;;;;;;19.95;48.23;101221.16;1735973;82;21222;-46
2022/05/09 08:01:03;;;;;;;9.13;1.70;;;;;;;19.99;48.44;101229.77;1715193;82;20905;-43
2022/05/09 08:03:33;;;;;;;1.87;1.67;;;;;;;20.00;49.19;101228.84;1735811;82;20988;-44
2022/05/09 08:06:02;;;;;;;1.85;1.50;;;;;;;19.93;48.74;101237.94;1735902;82;20992;-44
2022/05/09 08:08:30;;;;;;;2.42;1.55;;;;;;;19.86;49.66;101248.31;1735883;82;21387;-44
2022/05/09 08:10:59;;;;;;;6.15;1.90;;;;;;;19.73;50.30;101246.69;1735788;82;21251;-43
2022/05/09 08:13:30;;;;;;;1.67;1.57;;;;;;;19.62;49.91;101247.16;1735838;81;20878;-43
2022/05/09 08:15:59;;;;;;;10.55;1.75;;;;;;;19.60;49.23;101252.47;1735909;82;20918;-44
2022/05/09 08:18:26;;;;;;;7.67;1.80;;;;;;;19.32;49.41;101261.55;1735905;82;20885;-43
2022/05/09 08:20:57;;;;;;;8.18;1.80;;;;;;;18.89;50.60;101268.53;1735810;82;20980;-42
2022/05/09 08:23:23;;;;;;;4.10;2.05;;;;;;;18.56;52.83;101269.81;1735820;82;22162;-44
2022/05/09 08:25:51;;;;;;;6.95;2.12;;;;;;;18.20;54.56;101284.73;1735898;82;20842;-43
2022/05/09 08:28:19;;;;;;;9.68;2.47;;;;;;;17.87;56.07;101280.64;1735968;82;20890;-46
2022/05/09 08:30:48;;;;;;;8.58;2.10;;;;;;;17.66;57.09;101281.80;1735704;82;21493;-43
2022/05/09 08:33:17;;;;;;;6.67;2.20;;;;;;;17.75;57.90;101292.41;1735893;82;21506;-44
2022/05/09 08:35:47;;;;;;;3.92;2.10;;;;;;;18.16;57.20;101287.91;1735724;81;21055;-43
2022/05/09 08:38:14;;;;;;;2.98;1.82;;;;;;;18.36;56.33;101292.87;1735882;82;21542;-44
2022/05/09 08:41:03;;;;;;;3.27;1.90;;;;;;;18.17;57.49;101288.78;1735870;82;21008;-43
2022/05/09 08:43:55;;;;;;;2.75;2.10;;;;;;;17.89;57.05;101293.22;1723041;82;20861;-44
2022/05/09 08:46:51;;;;;;;3.70;2.12;;;;;;;17.94;57.69;101283.90;1735942;82;20938;-44
2022/05/09 08:49:32;;;;;;;7.87;3.10;;;;;;;18.29;57.61;101291.40;1736090;82;22194;-44
2022/05/09 08:52:25;;;;;;;5.25;2.70;;;;;;;18.36;57.62;101292.87;1735659;81;20953;-44
2022/05/09 08:54:53;;;;;;;3.50;2.55;;;;;;;18.09;58.88;101292.55;1736110;82;21020;-43
2022/05/09 08:57:23;;;;;;;3.92;2.25;;;;;;;17.86;60.42;101298.57;1715379;82;20942;-44
2022/05/09 09:00:05;;;;;;;5.08;2.77;;;;;;;17.89;60.00;101297.63;1735833;82;21222;-44
2022/05/09 09:03:02;;;;;;;6.55;2.98;;;;;;;17.65;61.46;101293.65;1735848;81;21111;-44
2022/05/09 09:05:34;;;;;;;4.80;3.05;;;;;;;17.42;63.31;101313.61;1734616;82;20849;-44
2022/05/09 09:08:18;;;;;;;7.37;3.05;;;;;;;17.37;65.20;101305.91;1735768;82;21435;-44
2022/05/09 09:11:02;;;;;;;2.52;2.33;;;;;;;17.58;64.71;101313.10;1735792;82;20901;-43
2022/05/09 09:14:00;;;;;;;2.58;2.33;;;;;;;17.78;62.94;101304.55;1741670;81;20904;-44
2022/05/09 09:16:48;;;;;;;4.00;2.22;;;;;;;17.74;61.84;101306.41;1749803;82;21142;-43
2022/05/09 09:19:54;;;;;;;6.97;2.20;;;;;;;17.74;62.51;101308.19;1749807;82;20991;-44
2022/05/09 09:22:36;;;;;;;7.87;1.85;;;;;;;18.14;61.67;101309.38;1750159;82;20952;-45
2022/05/09 09:25:26;;;;;;;7.25;2.55;;;;;;;18.56;59.37;101302.58;1749101;82;20988;-44
2022/05/09 09:28:49;;;;;;;1.87;1.77;;;;;;;18.72;57.51;101300.68;1816155;79;22203;-43
2022/05/09 09:31:24;;;;;;;2.65;2.05;;;;;;;18.66;57.41;101297.84;1789110;80;21462;-44
2022/05/09 09:33:57;;;;;;;3.95;1.70;;;;;;;18.62;57.68;101296.25;1788324;80;21254;-45
2022/05/09 09:36:30;;;;;;;3.22;1.80;;;;;;;18.65;57.71;101294.37;1789322;80;20975;-44
2022/05/09 09:39:02;;;;;;;2.05;1.85;;;;;;;18.54;57.14;101286.06;1789378;80;20951;-43
2022/05/09 09:41:33;;;;;;;2.42;1.70;;;;;;;18.37;56.75;101301.13;1786648;79;20980;-45
2022/05/09 09:44:11;;;;;;;3.45;1.70;;;;;;;18.15;55.56;101308.95;1784351;80;21498;-45
2022/05/09 09:47:12;;;;;;;2.42;1.80;;;;;;;18.22;55.78;101302.13;1784275;80;21141;-44
2022/05/09 09:49:42;;;;;;;2.87;1.55;;;;;;;18.69;55.71;101301.64;1778530;80;21030;-44
2022/05/09 09:52:26;;;;;;;2.65;1.70;;;;;;;19.19;52.67;101285.27;1784314;80;21026;-44
2022/05/09 09:55:01;;;;;;;2.67;1.90;;;;;;;19.36;51.94;101281.48;1784320;80;21592;-43
2022/05/09 09:57:35;;;;;;;1.80;1.70;;;;;;;19.30;50.64;101280.88;1784138;80;20837;-44
2022/05/09 10:00:20;;;;;;;4.33;1.50;;;;;;;19.14;51.82;101285.48;1720498;83;21279;-44
2022/05/09 10:02:48;;;;;;;6.40;1.47;;;;;;;19.27;50.53;101287.58;1715692;83;20940;-44
2022/05/09 10:05:22;;;;;;;2.80;1.62;;;;;;;19.26;49.76;101289.36;1692492;83;21522;-45
2022/05/09 10:07:48;;;;;;;2.50;1.72;;;;;;;19.27;50.37;101283.64;1734413;82;20952;-44
2022/05/09 10:10:21;;;;;;;7.78;1.82;;;;;;;19.23;50.93;101279.84;1731680;83;20995;-43
2022/05/09 10:12:55;;;;;;;3.67;1.40;;;;;;;19.23;49.93;101281.15;1731651;83;20884;-44
2022/05/09 10:15:27;;;;;;;58.48;3.02;;;;;;;19.16;50.83;101296.77;1731495;83;21557;-44
2022/05/09 10:17:54;;;;;;;2.77;1.60;;;;;;;18.96;50.28;101300.18;1731620;83;20951;-43
2022/05/09 10:20:40;;;;;;;5.60;1.50;;;;;;;18.74;50.84;101304.09;1731651;83;21496;-44
2022/05/09 10:26:28;;;;;;;8.83;1.60;;;;;;;18.52;50.90;101302.30;1731631;83;21240;-44
2022/05/09 10:29:04;;;;;;;10.55;2.05;;;;;;;18.47;52.10;101292.46;1710598;83;20973;-43
2022/05/09 10:31:47;;;;;;;9.95;1.37;;;;;;;18.77;50.73;101276.44;1725974;83;20901;-43
2022/05/09 10:34:17;;;;;;;8.13;1.52;;;;;;;19.11;49.75;101275.12;1710773;84;20984;-44
2022/05/09 10:37:00;;;;;;;4.50;1.95;;;;;;;19.39;49.49;101275.27;1723894;83;20929;-43
2022/05/09 10:39:33;;;;;;;3.62;1.02;;;;;;;19.50;47.63;101268.24;1677725;84;21489;-44
2022/05/09 10:42:04;;;;;;;4.70;1.30;;;;;;;19.43;46.66;101274.21;1725213;83;20944;-43
2022/05/09 10:44:53;;;;;;;1.30;1.20;;;;;;;19.48;45.80;101277.48;1710220;84;21538;-44
2022/05/09 10:47:52;;;;;;;2.05;1.42;;;;;;;19.70;45.23;101273.92;1725320;83;20924;-45
2022/05/09 10:50:28;;;;;;;2.00;1.20;;;;;;;19.83;44.70;101278.17;1710198;84;20940;-45
2022/05/09 10:53:15;;;;;;;1.30;1.22;;;;;;;19.62;45.74;101272.11;1725376;83;21384;-44
2022/05/09 10:55:50;;;;;;;5.05;1.20;;;;;;;19.34;46.76;101266.27;1710078;84;20992;-46
2022/05/09 10:58:24;;;;;;;;;;;;;;;19.26;46.74;101267.50;1728026;83;20932;-43
2022/05/09 11:01:02;;;;;;;4.83;1.20;;;;;;;19.32;46.58;101269.41;1725173;83;20142;-44
2022/05/09 11:03:39;;;;;;;2.25;1.15;;;;;;;19.44;47.26;101254.91;1725339;83;21090;-44
2022/05/09 11:06:39;;;;;;;3.37;1.15;;;;;;;20.06;46.77;101256.14;1725417;83;21176;-44
2022/05/09 11:09:41;;;;;;;0.93;0.93;;;;;;;20.70;44.14;101257.12;1585140;90;21482;-44
2022/05/09 11:12:16;;;;;;;3.08;0.82;;;;;;;20.75;41.54;101249.02;1725220;83;20892;-44
2022/05/09 11:15:21;;;;;;;1.22;1.07;;;;;;;20.29;42.64;101252.91;1710169;84;21629;-44
2022/05/09 11:17:59;;;;;;;1.57;0.68;;;;;;;19.99;41.89;101245.53;1725175;83;20940;-45
2022/05/09 11:21:02;;;;;;;2.65;1.50;;;;;;;19.63;42.17;101256.75;1725416;83;21312;-44
2022/05/09 11:23:37;;;;;;;4.30;0.90;;;;;;;19.58;43.62;101257.38;1725367;83;20972;-44
2022/05/09 11:26:31;;;;;;;3.00;0.68;;;;;;;19.68;44.27;101249.52;1710276;84;20898;-44
2022/05/09 11:29:09;;;;;;;3.92;0.70;;;;;;;19.82;43.43;101249.73;1719849;83;21035;-44
2022/05/09 11:32:18;;;;;;;0.70;0.70;;;;;;;19.84;43.39;101250.16;1720964;83;21007;-44
2022/05/09 11:35:24;;;;;;;2.95;0.78;;;;;;;19.90;42.31;101237.57;1770319;81;21086;-44
2022/05/09 11:38:35;;;;;;;0.88;0.88;;;;;;;20.30;40.84;101240.16;1770199;81;20924;-44
2022/05/09 11:41:26;;;;;;;0.70;0.70;;;;;;;20.72;39.57;101238.64;1681653;83;21593;-44
2022/05/09 11:44:18;;;;;;;5.58;0.95;;;;;;;20.98;39.23;101235.22;1769981;81;21527;-44
2022/05/09 11:47:09;;;;;;;1.55;0.70;;;;;;;21.11;38.89;101249.48;1770167;81;20960;-44
2022/05/09 11:50:01;;;;;;;3.05;0.70;;;;;;;20.99;38.73;101239.10;1770129;81;21174;-44
2022/05/09 11:52:39;;;;;;;5.35;0.80;;;;;;;20.89;39.15;101245.28;1704542;83;20992;-44
2022/05/09 11:55:20;;;;;;;1.75;0.78;;;;;;;20.64;38.61;101249.09;1765066;80;20929;-44
2022/05/09 11:58:00;;;;;;;3.87;0.90;;;;;;;20.62;37.23;101233.84;1704462;83;21434;-45
2022/05/09 12:00:43;;;;;;;1.57;0.70;;;;;;;20.80;35.72;101237.37;1770043;81;21542;-45